createdAt,value
2018-12-27T00:01:50.043Z,102328.46
2018-12-27T00:04:11.297Z,102361.68
2018-12-27T00:06:52.452Z,102331.41
2018-12-27T00:09:13.713Z,102327.18
2018-12-27T00:11:34.977Z,102359.72
2018-12-27T00:14:16.163Z,102315.25
2018-12-27T00:16:57.334Z,102322.42
2018-12-27T00:19:38.512Z,102319.04
2018-12-27T00:21:59.772Z,102352.89
2018-12-27T00:24:21.068Z,102354.53
2018-12-27T00:26:42.313Z,102355.20
2018-12-27T00:29:03.592Z,102354.38
2018-12-27T00:31:05.012Z,102351.91
2018-12-27T00:33:19.805Z,102326.23
2018-12-27T00:35:41.075Z,102313.77
2018-12-27T00:38:02.362Z,102346.50
2018-12-27T00:40:23.637Z,102348.29
2018-12-27T00:42:44.924Z,102314.25
2018-12-27T00:45:06.181Z,102346.98
2018-12-27T00:47:27.443Z,102344.67
2018-12-27T00:49:48.729Z,102344.17
2018-12-27T00:52:09.982Z,102305.61
2018-12-27T00:54:31.294Z,102338.75
2018-12-27T00:56:52.553Z,102299.52
2018-12-27T00:59:13.849Z,102331.72
2018-12-27T01:01:35.119Z,102329.42
2018-12-27T01:03:56.380Z,102329.42
2018-12-27T01:06:17.679Z,102329.77
2018-12-27T01:08:38.937Z,102288.86
2018-12-27T01:11:20.274Z,102324.38
2018-12-27T01:13:41.532Z,102288.00
2018-12-27T01:15:56.423Z,102325.19
2018-12-27T01:18:18.010Z,102282.95
2018-12-27T01:20:39.270Z,102276.44
2018-12-27T01:23:00.539Z,102316.19
2018-12-27T01:25:21.823Z,102319.60
2018-12-27T01:27:43.087Z,102318.59
2018-12-27T01:30:04.382Z,102323.64
2018-12-27T01:32:25.640Z,102318.73
2018-12-27T01:34:46.921Z,102282.39
2018-12-27T01:36:48.310Z,102317.07
2018-12-27T01:39:09.574Z,102313.99
2018-12-27T01:41:30.868Z,102315.45
2018-12-27T01:43:52.134Z,102304.20
2018-12-27T01:46:13.514Z,102269.55
2018-12-27T01:48:34.786Z,102304.85
2018-12-27T01:50:56.066Z,102302.23
2018-12-27T01:53:17.618Z,102268.81
2018-12-27T01:55:38.878Z,102305.64
2018-12-27T01:58:00.145Z,102301.09
2018-12-27T02:00:21.547Z,102293.23
2018-12-27T02:03:02.710Z,102256.87
2018-12-27T02:05:24.244Z,102256.92
2018-12-27T02:07:45.506Z,102266.52
2018-12-27T02:10:06.819Z,102300.78
2018-12-27T02:12:28.217Z,102299.50
2018-12-27T02:14:49.477Z,102266.45
2018-12-27T02:17:04.012Z,102274.33
2018-12-27T02:19:19.021Z,102275.80
2018-12-27T02:22:00.176Z,102316.53
2018-12-27T02:24:41.348Z,102281.17
2018-12-27T02:27:22.497Z,102312.58
2018-12-27T02:29:43.808Z,102317.52
2018-12-27T02:32:05.059Z,102312.93
2018-12-27T02:34:26.373Z,102315.41
2018-12-27T02:36:41.216Z,102287.88
2018-12-27T02:41:45.656Z,102307.39
2018-12-27T02:44:07.208Z,102307.70
2018-12-27T02:46:28.470Z,102307.86
2018-12-27T02:48:49.732Z,102277.27
2018-12-27T02:51:11.029Z,102311.43
2018-12-27T02:53:32.323Z,102313.58
2018-12-27T02:55:53.581Z,102280.64
2018-12-27T02:58:14.842Z,102276.08
2018-12-27T03:00:36.211Z,102303.42
2018-12-27T03:02:57.528Z,102304.92
2018-12-27T03:04:58.895Z,102301.16
2018-12-27T03:07:20.175Z,102268.09
2018-12-27T03:09:41.432Z,102297.06
2018-12-27T03:12:03.149Z,102296.62
2018-12-27T03:14:24.582Z,102262.12
2018-12-27T03:16:45.838Z,102250.37
2018-12-27T03:19:07.401Z,102280.29
2018-12-27T03:21:28.661Z,102236.12
2018-12-27T03:23:49.924Z,102267.16
2018-12-27T03:26:11.485Z,102234.11
2018-12-27T03:28:32.749Z,102273.88
2018-12-27T03:30:54.029Z,102270.75
2018-12-27T03:33:15.545Z,102264.89
2018-12-27T03:35:36.824Z,102233.48
2018-12-27T03:37:58.111Z,102259.80
2018-12-27T03:40:19.480Z,102265.69
2018-12-27T03:42:40.945Z,102219.79
2018-12-27T03:45:02.209Z,102258.38
2018-12-27T03:47:23.463Z,102223.98
2018-12-27T03:49:44.751Z,102263.91
2018-12-27T03:52:06.045Z,102264.86
2018-12-27T03:54:27.615Z,102264.40
2018-12-27T03:56:48.876Z,102228.12
2018-12-27T03:59:10.125Z,102258.73
2018-12-27T04:01:31.450Z,102223.55
2018-12-27T04:04:01.092Z,102262.62
2018-12-27T04:06:35.789Z,102262.81
2018-12-27T04:08:37.183Z,102260.00
2018-12-27T04:10:58.424Z,102217.03
2018-12-27T04:13:19.705Z,102254.45
2018-12-27T04:15:33.982Z,102219.79
2018-12-27T04:17:55.243Z,102229.55
2018-12-27T04:20:16.532Z,102253.73
2018-12-27T04:22:37.787Z,102252.59
2018-12-27T04:24:59.363Z,102251.53
2018-12-27T04:27:00.755Z,102248.09
2018-12-27T04:29:22.020Z,102254.94
2018-12-27T04:31:43.810Z,102252.67
2018-12-27T04:34:09.529Z,102209.16
2018-12-27T04:36:48.447Z,102241.96
2018-12-27T04:39:09.758Z,102236.75
2018-12-27T04:41:31.217Z,102236.92
2018-12-27T04:43:52.603Z,102232.37
2018-12-27T04:46:14.323Z,102228.28
2018-12-27T04:48:36.078Z,102221.05
2018-12-27T04:50:57.392Z,102191.34
2018-12-27T04:53:18.723Z,102186.45
2018-12-27T04:55:20.267Z,102222.77
2018-12-27T04:57:41.511Z,102221.79
2018-12-27T05:00:04.011Z,102221.27
2018-12-27T05:02:25.288Z,102224.16
2018-12-27T05:04:46.539Z,102227.13
2018-12-27T05:07:08.084Z,102227.63
2018-12-27T05:09:29.365Z,102204.39
2018-12-27T05:11:50.615Z,102230.27
2018-12-27T05:14:11.913Z,102190.73
2018-12-27T05:16:26.201Z,102230.95
2018-12-27T05:18:47.472Z,102198.25
2018-12-27T05:21:08.766Z,102231.00
2018-12-27T05:23:49.905Z,102187.58
2018-12-27T05:26:31.076Z,102233.01
2018-12-27T05:28:52.339Z,102226.50
2018-12-27T05:31:13.562Z,102218.86
2018-12-27T05:33:14.934Z,102233.22
2018-12-27T05:35:36.183Z,102201.02
2018-12-27T05:38:17.717Z,102203.46
2018-12-27T05:40:38.976Z,102200.85
2018-12-27T05:43:00.239Z,102229.37
2018-12-27T05:45:01.847Z,102229.06
2018-12-27T05:47:23.099Z,102229.91
2018-12-27T05:49:44.628Z,102187.75
2018-12-27T05:52:05.903Z,102198.53
2018-12-27T05:54:27.140Z,102232.27
2018-12-27T05:56:48.435Z,102231.34
2018-12-27T05:59:09.686Z,102231.69
2018-12-27T06:01:31.248Z,102229.58
2018-12-27T06:03:52.473Z,102229.39
2018-12-27T06:06:13.738Z,102233.17
2018-12-27T06:08:35.468Z,102233.48
2018-12-27T06:10:57.216Z,102232.98
2018-12-27T06:13:18.525Z,102196.41
2018-12-27T06:15:39.853Z,102222.75
2018-12-27T06:17:55.089Z,102230.59
2018-12-27T06:20:16.338Z,102196.39
2018-12-27T06:22:37.622Z,102233.53
2018-12-27T06:24:58.924Z,102230.18
2018-12-27T06:27:20.200Z,102229.70
2018-12-27T06:30:02.525Z,102200.77
2018-12-27T06:32:45.244Z,102187.92
2018-12-27T06:35:06.507Z,102227.63
2018-12-27T06:37:27.787Z,102228.29
2018-12-27T06:39:49.048Z,102197.84
2018-12-27T06:42:10.302Z,102228.62
2018-12-27T06:44:31.603Z,102233.22
2018-12-27T06:46:52.846Z,102228.47
2018-12-27T06:49:14.096Z,102199.52
2018-12-27T06:51:35.551Z,102237.97
2018-12-27T06:53:56.824Z,102232.45
2018-12-27T06:56:18.068Z,102239.48
2018-12-27T06:58:39.373Z,102232.84
2018-12-27T07:01:00.641Z,102197.69
2018-12-27T07:03:21.877Z,102231.06
2018-12-27T07:05:43.153Z,102191.36
2018-12-27T07:08:04.427Z,102229.14
2018-12-27T07:10:45.607Z,102188.31
2018-12-27T07:13:06.886Z,102186.52
2018-12-27T07:15:28.154Z,102226.27
2018-12-27T07:17:49.480Z,102183.14
2018-12-27T07:20:04.681Z,102218.16
2018-12-27T07:22:25.988Z,102176.30
2018-12-27T07:24:47.284Z,102183.83
2018-12-27T07:27:08.548Z,102216.37
2018-12-27T07:29:29.835Z,102213.78
2018-12-27T07:31:51.136Z,102186.08
2018-12-27T07:34:12.424Z,102182.51
2018-12-27T07:36:33.800Z,102221.13
2018-12-27T07:38:55.051Z,102219.17
2018-12-27T07:41:16.315Z,102222.59
2018-12-27T07:43:37.600Z,102221.78
2018-12-27T07:45:58.853Z,102219.98
2018-12-27T07:48:20.392Z,102183.98
2018-12-27T07:50:41.671Z,102227.51
2018-12-27T07:53:02.927Z,102224.38
2018-12-27T07:55:24.244Z,102222.12
2018-12-27T07:57:45.476Z,102228.81
2018-12-27T08:00:06.797Z,102226.35
2018-12-27T08:02:48.069Z,102228.48
2018-12-27T08:05:04.153Z,102230.12
2018-12-27T08:07:25.813Z,102208.61
2018-12-27T08:09:47.093Z,102192.78
2018-12-27T08:12:08.372Z,102232.20
2018-12-27T08:14:29.772Z,102237.39
2018-12-27T08:16:51.010Z,102202.86
2018-12-27T08:19:12.293Z,102237.70
2018-12-27T08:21:33.576Z,102237.86
2018-12-27T08:23:54.871Z,102237.39
2018-12-27T08:26:16.130Z,102235.77
2018-12-27T08:28:37.653Z,102195.66
2018-12-27T08:30:58.914Z,102224.84
2018-12-27T08:33:20.270Z,102188.67
2018-12-27T08:35:41.821Z,102213.89
2018-12-27T08:38:03.075Z,102214.71
2018-12-27T08:40:24.325Z,102213.56
2018-12-27T08:42:45.615Z,102206.84
2018-12-27T08:45:06.950Z,102204.58
2018-12-27T08:47:28.239Z,102204.07
2018-12-27T08:49:49.584Z,102183.73
2018-12-27T08:52:10.899Z,102212.71
2018-12-27T08:54:32.251Z,102220.41
2018-12-27T08:56:53.543Z,102224.33
2018-12-27T08:59:08.211Z,102188.00
2018-12-27T09:01:29.726Z,102186.54
2018-12-27T09:03:50.977Z,102197.59
2018-12-27T09:06:12.262Z,102225.94
2018-12-27T09:08:27.574Z,102185.86
2018-12-27T09:10:48.932Z,102221.33
2018-12-27T09:13:10.204Z,102223.95
2018-12-27T09:15:31.610Z,102227.06
2018-12-27T09:17:52.851Z,102191.06
2018-12-27T09:19:54.186Z,102229.33
2018-12-27T09:22:15.507Z,102193.83
2018-12-27T09:24:56.635Z,102232.09
2018-12-27T09:27:37.829Z,102201.97
2018-12-27T09:29:59.068Z,102229.48
2018-12-27T09:32:20.346Z,102231.44
2018-12-27T09:34:41.660Z,102231.25
2018-12-27T09:37:02.911Z,102189.91
2018-12-27T09:39:24.200Z,102223.60
2018-12-27T09:41:45.464Z,102192.00
2018-12-27T09:44:06.722Z,102222.42
2018-12-27T09:46:28.104Z,102218.16
2018-12-27T09:48:49.449Z,102183.36
2018-12-27T09:51:10.722Z,102218.83
2018-12-27T09:53:31.973Z,102179.25
2018-12-27T09:55:53.640Z,102175.97
2018-12-27T09:58:14.968Z,102202.33
2018-12-27T10:00:36.264Z,102197.26
2018-12-27T10:02:57.539Z,102154.27
2018-12-27T10:05:18.808Z,102192.69
2018-12-27T10:07:33.576Z,102197.25
2018-12-27T10:09:54.844Z,102159.45
2018-12-27T10:12:16.080Z,102189.22
2018-12-27T10:14:37.384Z,102182.05
2018-12-27T10:16:58.654Z,102182.67
2018-12-27T10:19:19.937Z,102175.30
2018-12-27T10:22:01.146Z,102139.16
2018-12-27T10:24:42.295Z,102131.19
2018-12-27T10:27:23.475Z,102140.59
2018-12-27T10:29:45.027Z,102120.69
2018-12-27T10:32:06.282Z,102120.20
2018-12-27T10:34:27.546Z,102155.20
2018-12-27T10:36:48.852Z,102153.84
2018-12-27T10:39:10.238Z,102149.12
2018-12-27T10:41:31.497Z,102147.44
2018-12-27T10:43:52.778Z,102146.09
2018-12-27T10:46:14.023Z,102141.56
2018-12-27T10:48:35.273Z,102138.42
2018-12-27T10:50:56.598Z,102141.16
2018-12-27T10:53:17.851Z,102143.25
2018-12-27T10:55:39.099Z,102137.39
2018-12-27T10:58:00.415Z,102139.66
2018-12-27T11:00:21.726Z,102104.85
2018-12-27T11:02:42.992Z,102138.73
2018-12-27T11:05:04.558Z,102129.70
2018-12-27T11:07:26.101Z,102089.55
2018-12-27T11:09:40.848Z,102098.95
2018-12-27T11:12:02.111Z,102119.22
2018-12-27T11:14:23.395Z,102082.81
2018-12-27T11:16:52.317Z,102076.75
2018-12-27T11:19:13.906Z,102114.64
2018-12-27T11:21:35.167Z,102082.77
2018-12-27T11:23:56.411Z,102111.19
2018-12-27T11:26:17.707Z,102081.27
2018-12-27T11:28:39.021Z,102115.57
2018-12-27T11:31:00.290Z,102111.11
2018-12-27T11:33:21.564Z,102089.65
2018-12-27T11:35:44.750Z,102101.77
2018-12-27T11:38:06.030Z,102104.91
2018-12-27T11:40:27.334Z,102062.35
2018-12-27T11:42:48.577Z,102059.22
2018-12-27T11:45:09.896Z,102092.54
2018-12-27T11:47:31.155Z,102094.28
2018-12-27T11:49:45.572Z,102057.05
2018-12-27T11:52:06.832Z,102093.11
2018-12-27T11:54:28.306Z,102059.80
2018-12-27T11:56:49.899Z,102093.73
2018-12-27T11:59:11.164Z,102053.59
2018-12-27T12:01:32.448Z,102052.31
2018-12-27T12:03:53.785Z,102086.41
2018-12-27T12:06:15.052Z,102088.66
2018-12-27T12:08:36.298Z,102048.83
2018-12-27T12:10:57.633Z,102087.23
2018-12-27T12:13:18.884Z,102054.20
2018-12-27T12:15:40.126Z,102085.19
2018-12-27T12:18:01.523Z,102085.55
2018-12-27T12:20:42.650Z,102056.27
2018-12-27T12:23:03.984Z,102057.91
2018-12-27T12:25:25.547Z,102089.55
2018-12-27T12:27:46.788Z,102096.60
2018-12-27T12:30:08.057Z,102094.16
2018-12-27T12:32:29.386Z,102093.53
2018-12-27T12:34:50.644Z,102091.41
2018-12-27T12:37:14.189Z,102089.58
2018-12-27T12:39:55.090Z,102087.42
2018-12-27T12:42:17.415Z,102089.68
2018-12-27T12:44:59.444Z,102080.23
2018-12-27T12:47:20.855Z,102080.86
2018-12-27T12:49:36.063Z,102045.45
2018-12-27T12:51:57.326Z,102050.00
2018-12-27T12:54:38.521Z,102049.27
2018-12-27T12:57:19.870Z,102087.45
2018-12-27T12:59:41.227Z,102049.19
2018-12-27T13:02:02.489Z,102082.59
2018-12-27T13:04:23.783Z,102045.73
2018-12-27T13:06:45.080Z,102082.22
2018-12-27T13:09:06.406Z,102081.86
2018-12-27T13:11:27.669Z,102070.51
2018-12-27T13:13:48.934Z,102031.79
2018-12-27T13:16:10.250Z,102069.53
2018-12-27T13:18:31.514Z,102069.36
2018-12-27T13:20:52.778Z,102076.39
2018-12-27T13:23:14.114Z,102045.02
2018-12-27T13:25:35.362Z,102074.44
2018-12-27T13:27:56.682Z,102080.61
2018-12-27T13:30:18.216Z,102080.45
2018-12-27T13:32:39.471Z,102077.67
2018-12-27T13:35:00.726Z,102047.11
2018-12-27T13:37:22.063Z,102078.81
2018-12-27T13:39:23.446Z,102085.98
2018-12-27T13:41:44.689Z,102045.84
2018-12-27T13:44:06.009Z,102079.17
2018-12-27T13:46:27.269Z,102045.05
2018-12-27T13:48:48.536Z,102047.67
2018-12-27T13:51:03.566Z,102081.78
2018-12-27T13:53:24.890Z,102047.34
2018-12-27T13:55:46.147Z,102086.20
2018-12-27T13:58:07.492Z,102053.44
2018-12-27T14:00:28.742Z,102041.56
2018-12-27T14:02:50.038Z,102082.00
2018-12-27T14:05:11.348Z,102088.31
2018-12-27T14:07:32.688Z,102050.96
2018-12-27T14:09:53.965Z,102089.19
2018-12-27T14:12:15.296Z,102087.06
2018-12-27T14:14:36.563Z,102050.66
2018-12-27T14:16:57.803Z,102082.98
2018-12-27T14:19:19.129Z,102047.77
2018-12-27T14:21:40.441Z,102076.36
2018-12-27T14:24:01.714Z,102083.85
2018-12-27T14:26:23.016Z,102080.96
2018-12-27T14:28:44.281Z,102079.16
2018-12-27T14:31:05.842Z,102042.62
2018-12-27T14:33:27.171Z,102082.31
2018-12-27T14:35:48.441Z,102050.01
2018-12-27T14:38:09.666Z,102075.30
2018-12-27T14:40:11.250Z,102073.02
2018-12-27T14:42:12.603Z,102071.38
2018-12-27T14:44:33.821Z,102035.40
2018-12-27T14:46:55.102Z,102068.30
2018-12-27T14:48:56.473Z,102068.46
2018-12-27T14:51:11.394Z,102034.96
2018-12-27T14:53:32.707Z,102035.50
2018-12-27T14:55:53.939Z,102034.17
2018-12-27T14:58:15.213Z,102077.28
2018-12-27T15:00:56.432Z,102044.77
2018-12-27T15:03:37.568Z,102039.13
2018-12-27T15:06:18.919Z,102046.97
2018-12-27T15:09:00.037Z,102040.19
2018-12-27T15:11:21.350Z,102039.95
2018-12-27T15:13:42.608Z,102077.18
2018-12-27T15:16:03.893Z,102040.74
2018-12-27T15:18:25.383Z,102040.25
2018-12-27T15:20:46.644Z,102080.20
2018-12-27T15:23:07.924Z,102074.67
2018-12-27T15:25:29.242Z,102075.14
2018-12-27T15:27:50.495Z,102032.36
2018-12-27T15:30:11.826Z,102066.62
2018-12-27T15:32:33.169Z,102063.48
2018-12-27T15:34:54.423Z,102030.70
2018-12-27T15:37:15.784Z,102068.00
2018-12-27T15:39:37.126Z,102068.69
2018-12-27T15:41:58.407Z,102066.59
2018-12-27T15:44:19.654Z,102065.94
2018-12-27T15:46:41.103Z,102025.80
2018-12-27T15:49:02.357Z,102064.08
2018-12-27T15:51:23.632Z,102067.41
2018-12-27T15:53:39.165Z,102029.97
2018-12-27T15:56:00.570Z,102060.81
2018-12-27T15:58:21.829Z,102027.05
2018-12-27T16:00:43.233Z,102056.42
2018-12-27T16:03:04.467Z,102053.67
2018-12-27T16:05:25.825Z,102014.80
2018-12-27T16:07:47.301Z,102055.77
2018-12-27T16:10:08.654Z,102016.13
2018-12-27T16:12:29.874Z,102054.95
2018-12-27T16:14:51.179Z,102013.33
2018-12-27T16:17:12.590Z,102047.93
2018-12-27T16:19:33.915Z,102050.19
2018-12-27T16:21:55.273Z,102008.59
2018-12-27T16:24:16.617Z,102043.33
2018-12-27T16:26:37.923Z,102014.71
2018-12-27T16:28:59.238Z,102051.27
2018-12-27T16:31:20.473Z,102015.56
2018-12-27T16:33:41.839Z,102050.16
2018-12-27T16:36:03.098Z,102056.17
2018-12-27T16:38:24.408Z,102010.36
2018-12-27T16:40:45.891Z,102054.11
2018-12-27T16:43:07.314Z,102018.50
2018-12-27T16:45:28.604Z,102056.17
2018-12-27T16:47:49.863Z,102015.86
2018-12-27T16:50:11.192Z,102050.27
2018-12-27T16:52:32.443Z,102046.02
2018-12-27T16:55:06.837Z,102044.57
2018-12-27T16:57:47.988Z,102043.53
2018-12-27T17:00:09.343Z,101999.95
2018-12-27T17:02:30.603Z,102040.42
2018-12-27T17:04:51.862Z,102040.91
2018-12-27T17:07:16.109Z,102040.59
2018-12-27T17:09:56.255Z,102003.58
2018-12-27T17:12:17.565Z,102041.38
2018-12-27T17:14:38.840Z,102033.36
2018-12-27T17:17:00.103Z,102032.71
2018-12-27T17:19:21.564Z,101999.59
2018-12-27T17:21:42.824Z,102027.94
2018-12-27T17:24:04.074Z,102000.34
2018-12-27T17:26:25.390Z,101998.41
2018-12-27T17:28:46.661Z,102027.45
2018-12-27T17:31:07.923Z,101985.50
2018-12-27T17:33:29.265Z,102023.49
2018-12-27T17:35:50.510Z,102025.62
2018-12-27T17:38:11.813Z,102021.98
2018-12-27T17:40:33.123Z,102017.94
2018-12-27T17:42:54.390Z,101986.84
2018-12-27T17:45:15.665Z,102015.18
2018-12-27T17:47:36.980Z,102016.23
2018-12-27T17:49:58.238Z,102020.28
2018-12-27T17:52:39.428Z,102004.82
2018-12-27T17:55:20.568Z,102008.38
2018-12-27T17:57:54.816Z,102011.16
2018-12-27T18:00:16.119Z,102013.42
2018-12-27T18:02:37.411Z,102011.09
2018-12-27T18:04:58.722Z,101971.52
2018-12-27T18:07:19.983Z,101975.89
2018-12-27T18:09:41.303Z,102010.14
2018-12-27T18:12:02.599Z,102005.34
2018-12-27T18:14:23.851Z,101976.67
2018-12-27T18:16:45.137Z,102007.62
2018-12-27T18:19:06.455Z,102008.19
2018-12-27T18:21:27.726Z,101967.30
2018-12-27T18:23:48.962Z,101977.69
2018-12-27T18:26:10.294Z,102011.98
2018-12-27T18:28:31.555Z,102015.55
2018-12-27T18:30:52.797Z,102011.91
2018-12-27T18:33:14.152Z,102015.02
2018-12-27T18:35:29.267Z,102012.14
2018-12-27T18:37:50.531Z,101974.91
2018-12-27T18:40:11.858Z,102012.41
2018-12-27T18:42:33.103Z,102017.44
2018-12-27T18:44:54.345Z,102014.23
2018-12-27T18:47:15.672Z,102011.31
2018-12-27T18:49:36.993Z,102013.97
2018-12-27T18:51:58.233Z,101971.48
2018-12-27T18:54:19.538Z,101989.78
2018-12-27T18:56:40.795Z,102009.66
2018-12-27T18:59:02.127Z,102005.20
2018-12-27T19:01:23.459Z,101974.06
2018-12-27T19:03:44.718Z,102009.58
2018-12-27T19:06:05.989Z,102013.91
2018-12-27T19:08:27.299Z,101979.66
2018-12-27T19:11:10.322Z,102019.30
2018-12-27T19:13:31.651Z,102020.77
2018-12-27T19:15:52.994Z,102023.23
2018-12-27T19:18:34.187Z,102022.12
2018-12-27T19:21:17.234Z,101995.64
2018-12-27T19:23:38.562Z,102023.06
2018-12-27T19:25:59.807Z,102029.23
2018-12-27T19:28:21.044Z,102027.41
2018-12-27T19:30:42.379Z,101987.11
2018-12-27T19:33:03.701Z,102029.53
2018-12-27T19:35:25.550Z,102023.68
2018-12-27T19:37:40.778Z,101987.66
2018-12-27T19:43:05.396Z,101995.21
2018-12-27T19:45:26.635Z,101996.00
2018-12-27T19:47:47.978Z,102028.30
2018-12-27T19:50:09.217Z,102026.20
2018-12-27T19:52:30.473Z,101999.27
2018-12-27T19:54:51.780Z,102010.19
2018-12-27T19:57:13.025Z,102002.66
2018-12-27T19:59:34.293Z,102043.44
2018-12-27T20:01:56.800Z,102011.13
2018-12-27T20:04:38.609Z,102007.89
2018-12-27T20:06:59.953Z,102009.37
2018-12-27T20:09:21.215Z,102013.16
2018-12-27T20:11:42.477Z,102042.32
2018-12-27T20:14:03.771Z,102048.59
2018-12-27T20:16:25.032Z,102012.21
2018-12-27T20:18:46.315Z,102045.56
2018-12-27T20:21:07.682Z,102045.14
2018-12-27T20:23:29.042Z,102045.79
2018-12-27T20:25:50.304Z,102040.66
2018-12-27T20:28:11.626Z,102015.67
2018-12-27T20:30:32.870Z,102022.84
2018-12-27T20:32:54.143Z,102013.71
2018-12-27T20:35:09.239Z,102040.30
2018-12-27T20:37:30.508Z,102006.87
2018-12-27T20:39:51.747Z,102043.92
2018-12-27T20:42:13.058Z,102046.67
2018-12-27T20:44:34.331Z,102040.63
2018-12-27T20:46:55.642Z,102036.38
2018-12-27T20:49:16.905Z,102039.19
2018-12-27T20:51:38.185Z,102006.52
2018-12-27T20:53:59.508Z,101995.83
2018-12-27T20:56:20.761Z,101997.61
2018-12-27T20:58:42.022Z,102035.75
2018-12-27T21:01:03.353Z,102038.06
2018-12-27T21:03:24.682Z,102010.66
2018-12-27T21:05:45.961Z,102040.22
2018-12-27T21:08:13.938Z,102040.09
2018-12-27T21:10:51.077Z,102041.91
2018-12-27T21:13:12.333Z,102041.59
2018-12-27T21:15:33.582Z,101995.80
2018-12-27T21:17:54.915Z,102000.05
2018-12-27T21:20:16.177Z,102038.56
2018-12-27T21:22:37.444Z,102041.51
2018-12-27T21:24:58.768Z,102038.59
2018-12-27T21:27:00.226Z,102033.59
2018-12-27T21:29:21.466Z,102036.53
2018-12-27T21:31:42.814Z,102002.61
2018-12-27T21:34:04.071Z,102038.67
2018-12-27T21:36:25.337Z,102004.73
2018-12-27T21:38:46.822Z,102029.88
2018-12-27T21:41:08.189Z,102001.35
2018-12-27T21:43:29.472Z,102029.06
2018-12-27T21:45:50.814Z,102033.13
2018-12-27T21:48:12.089Z,102024.66
2018-12-27T21:50:33.382Z,101988.59
2018-12-27T21:52:54.725Z,101984.88
2018-12-27T21:55:16.062Z,102014.23
2018-12-27T21:57:17.442Z,102017.03
2018-12-27T21:59:18.989Z,102016.22
2018-12-27T22:01:40.253Z,101981.27
2018-12-27T22:04:01.499Z,102014.45
2018-12-27T22:06:22.845Z,102013.11
2018-12-27T22:08:44.180Z,101973.55
2018-12-27T22:11:05.444Z,102008.92
2018-12-27T22:13:26.896Z,102009.80
2018-12-27T22:15:48.143Z,101975.81
2018-12-27T22:18:09.383Z,102009.00
2018-12-27T22:20:30.693Z,101976.12
2018-12-27T22:23:11.851Z,101970.23
2018-12-27T22:25:53.076Z,101963.28
2018-12-27T22:28:14.418Z,101993.27
2018-12-27T22:30:35.682Z,101952.12
2018-12-27T22:32:57.016Z,101947.98
2018-12-27T22:35:18.277Z,101981.32
2018-12-27T22:37:39.560Z,101981.59
2018-12-27T22:40:00.848Z,101949.16
2018-12-27T22:42:22.170Z,101948.36
2018-12-27T22:44:43.423Z,101985.05
2018-12-27T22:47:04.682Z,101976.13
2018-12-27T22:49:25.981Z,101977.38
2018-12-27T22:51:47.243Z,101979.71
2018-12-27T22:54:08.503Z,101980.86
2018-12-27T22:56:29.853Z,101951.30
2018-12-27T22:58:51.114Z,101960.09
2018-12-27T23:01:12.691Z,101988.80
2018-12-27T23:03:34.013Z,101954.57
2018-12-27T23:05:55.358Z,101942.48
2018-12-27T23:08:16.616Z,101979.17
2018-12-27T23:10:37.924Z,101984.17
2018-12-27T23:12:59.174Z,101948.71
2018-12-27T23:15:20.440Z,101978.23
2018-12-27T23:17:41.753Z,101975.68
2018-12-27T23:20:03.909Z,101977.31
2018-12-27T23:22:25.149Z,101945.15
2018-12-27T23:25:06.512Z,101980.84
2018-12-27T23:27:27.755Z,101960.41
2018-12-27T23:29:42.496Z,101979.87
2018-12-27T23:32:03.805Z,101976.99
2018-12-27T23:34:25.040Z,101930.05
2018-12-27T23:36:46.312Z,101967.38
2018-12-27T23:39:27.492Z,101944.63
2018-12-27T23:41:48.796Z,101977.58
2018-12-27T23:44:10.049Z,101946.13
2018-12-27T23:46:31.322Z,101978.63
2018-12-27T23:48:52.780Z,101979.77
2018-12-27T23:51:14.051Z,101935.22
2018-12-27T23:53:35.280Z,101970.91
2018-12-27T23:55:36.685Z,101975.38
2018-12-27T23:57:57.907Z,101968.49
